Time;durP1;ratioP1;P1;durP2;ratioP2;P2;SDS_P1;SDS_P2;PMS_P1;PMS_P2;Temp;Humidity;BMP_temperature;BMP_pressure;BME280_temperature;BME280_humidity;BME280_pressure;Samples;Min_cycle;Max_cycle;Signal;HPM_P1;HPM_P2
2023/12/06 00:02:16;;;;;;;32.80;21.83;;;;;;;1.54;100.00;95159.66;7395980;19;20403;-90
2023/12/06 00:04:44;;;;;;;26.30;19.40;;;;;;;1.45;100.00;95117.34;7399495;19;20400;-90
2023/12/06 00:07:11;;;;;;;27.70;19.60;;;;;;;1.18;100.00;95079.03;7399729;19;20374;-90
2023/12/06 00:09:39;;;;;;;35.60;21.37;;;;;;;1.35;100.00;95107.06;7399456;19;20387;-89
2023/12/06 00:12:07;;;;;;;32.30;20.30;;;;;;;1.22;100.00;95096.28;7397696;19;20425;-90
2023/12/06 00:14:34;;;;;;;22.60;17.83;;;;;;;1.72;100.00;95153.84;7398015;19;20372;-89
2023/12/06 00:17:01;;;;;;;27.97;20.30;;;;;;;1.63;100.00;95150.28;7398853;19;20390;-89
2023/12/06 00:19:29;;;;;;;25.27;20.20;;;;;;;2.10;100.00;95224.69;7398039;19;20384;-90
2023/12/06 00:21:56;;;;;;;29.50;20.87;;;;;;;1.45;100.00;95115.53;7397883;19;20413;-90
2023/12/06 00:24:24;;;;;;;30.57;21.33;;;;;;;1.53;100.00;95145.97;7399093;19;20405;-90
2023/12/06 00:26:52;;;;;;;28.50;19.27;;;;;;;1.61;100.00;95149.03;7396853;19;20427;-90
2023/12/06 00:29:19;;;;;;;21.57;19.27;;;;;;;1.52;100.00;95128.91;7398986;19;20368;-90
2023/12/06 00:31:46;;;;;;;25.00;18.20;;;;;;;0.96;100.00;95011.50;7397672;19;20450;-89
2023/12/06 00:34:14;;;;;;;19.67;16.13;;;;;;;1.65;100.00;95106.84;7398526;19;20411;-90
2023/12/06 00:36:41;;;;;;;23.60;17.53;;;;;;;2.16;100.00;95178.84;7398306;19;20393;-90
2023/12/06 00:39:09;;;;;;;24.50;17.60;;;;;;;1.64;100.00;95091.59;7398626;19;20375;-89
2023/12/06 00:41:37;;;;;;;21.60;16.53;;;;;;;1.92;100.00;95129.63;7397748;19;20447;-90
2023/12/06 00:44:04;;;;;;;22.77;16.43;;;;;;;1.90;100.00;95128.34;7398304;19;20400;-88
2023/12/06 00:46:31;;;;;;;22.33;16.50;;;;;;;1.90;100.00;95152.41;7398681;19;20458;-91
2023/12/06 00:49:03;;;;;;;23.43;17.77;;;;;;;1.76;100.00;95123.81;7398518;19;20462;-89
2023/12/06 00:51:31;;;;;;;22.20;16.20;;;;;;;1.71;100.00;95130.84;7397026;19;20493;-88
2023/12/06 00:53:58;;;;;;;20.47;16.33;;;;;;;1.48;100.00;95096.13;7397974;19;20370;-89
2023/12/06 00:56:26;;;;;;;21.30;16.80;;;;;;;1.60;100.00;95117.22;7397809;19;20373;-91
2023/12/06 00:58:53;;;;;;;22.07;15.90;;;;;;;1.38;100.00;95084.03;7398486;19;20388;-91
2023/12/06 01:01:21;;;;;;;20.77;17.93;;;;;;;2.02;100.00;95176.09;7398225;19;20462;-91
2023/12/06 01:03:49;;;;;;;23.43;16.97;;;;;;;2.00;100.00;95148.97;7397752;19;20761;-89
2023/12/06 01:06:17;;;;;;;19.23;16.70;;;;;;;1.74;100.00;95128.50;7397538;19;20374;-89
2023/12/06 01:08:44;;;;;;;24.10;16.53;;;;;;;1.97;100.00;95159.88;7396985;19;20403;-89
2023/12/06 01:11:11;;;;;;;21.37;16.77;;;;;;;1.73;100.00;95119.19;7396214;19;20895;-89
2023/12/06 01:13:39;;;;;;;21.50;16.43;;;;;;;1.88;100.00;95136.38;7397571;19;20394;-90
2023/12/06 01:16:07;;;;;;;20.17;15.63;;;;;;;1.13;100.00;95017.03;7396242;19;20414;-89
2023/12/06 01:18:34;;;;;;;24.03;16.30;;;;;;;2.10;100.00;95172.16;7397120;19;20394;-89
2023/12/06 01:21:02;;;;;;;21.80;16.03;;;;;;;1.67;100.00;95116.91;7396676;19;20895;-89
2023/12/06 01:23:30;;;;;;;20.80;15.93;;;;;;;1.77;100.00;95148.63;7397338;19;20407;-88
2023/12/06 01:25:57;;;;;;;27.17;18.37;;;;;;;1.85;100.00;95173.16;7396119;19;20416;-89
2023/12/06 01:28:25;;;;;;;22.20;16.33;;;;;;;1.99;100.00;95165.53;7397068;19;20462;-89
2023/12/06 01:30:53;;;;;;;22.80;15.67;;;;;;;1.93;100.00;95167.38;7396278;19;20423;-89
2023/12/06 01:33:21;;;;;;;21.63;16.10;;;;;;;1.13;100.00;95053.97;7404107;19;20383;-91
2023/12/06 01:35:50;;;;;;;19.40;16.40;;;;;;;1.70;100.00;95157.75;7403812;19;20376;-91
2023/12/06 01:38:17;;;;;;;21.80;15.73;;;;;;;1.58;100.00;95127.06;7404751;19;20387;-91
2023/12/06 01:40:45;;;;;;;21.10;18.47;;;;;;;1.50;100.00;95123.22;7403196;19;20884;-91
2023/12/06 01:43:13;;;;;;;21.07;15.20;;;;;;;1.30;100.00;95089.03;7404402;19;20386;-91
2023/12/06 01:45:41;;;;;;;21.60;16.73;;;;;;;1.44;100.00;95120.97;7404248;19;20387;-91
2023/12/06 01:48:10;;;;;;;21.40;16.60;;;;;;;1.33;100.00;95107.34;7404394;19;20451;-91
2023/12/06 01:50:40;;;;;;;22.27;16.47;;;;;;;1.40;100.00;95119.94;7403744;19;20414;-91
2023/12/06 01:53:08;;;;;;;21.30;17.60;;;;;;;1.49;100.00;95113.16;7404017;19;20466;-91
2023/12/06 01:55:35;;;;;;;25.53;17.00;;;;;;;1.42;100.00;95108.28;7403736;19;20386;-91
2023/12/06 01:58:03;;;;;;;19.83;15.80;;;;;;;1.38;100.00;95104.72;7403351;19;20384;-91
2023/12/06 02:00:31;;;;;;;20.33;15.53;;;;;;;1.77;100.00;95184.84;7403633;19;20703;-91
2023/12/06 02:02:59;;;;;;;20.30;15.40;;;;;;;1.49;100.00;95137.19;7403956;19;20383;-91
2023/12/06 02:05:26;;;;;;;19.20;15.17;;;;;;;1.00;100.00;95056.41;7403907;19;20372;-91
2023/12/06 02:07:54;;;;;;;18.67;15.10;;;;;;;0.67;100.00;94996.72;7404849;19;20375;-90
2023/12/06 02:10:22;;;;;;;18.77;15.80;;;;;;;1.26;100.00;95083.59;7403278;19;20869;-88
2023/12/06 02:12:49;;;;;;;22.53;16.07;;;;;;;1.93;100.00;95175.13;7403460;19;20371;-89
2023/12/06 02:15:18;;;;;;;17.73;15.10;;;;;;;1.80;100.00;95150.66;7402012;19;20867;-89
2023/12/06 02:17:45;;;;;;;17.83;15.27;;;;;;;1.90;100.00;95149.03;7402605;19;20390;-88
2023/12/06 02:20:14;;;;;;;20.30;16.60;;;;;;;1.46;100.00;95108.53;7402716;19;20443;-88
2023/12/06 02:22:42;;;;;;;23.23;16.03;;;;;;;1.56;100.00;95128.34;7400150;19;20736;-88
2023/12/06 02:25:16;;;;;;;16.77;14.80;;;;;;;0.87;100.00;95030.13;7401971;19;20418;-88
2023/12/06 02:27:45;;;;;;;17.70;14.23;;;;;;;2.17;100.00;95221.78;7402767;19;20393;-88
2023/12/06 02:30:13;;;;;;;20.53;15.90;;;;;;;1.36;100.00;95106.78;7403112;19;20471;-88
2023/12/06 02:32:41;;;;;;;22.03;15.93;;;;;;;1.09;100.00;95067.72;7399714;19;20407;-88
2023/12/06 02:35:34;;;;;;;24.33;16.50;;;;;;;1.76;100.00;95167.78;7402302;19;20395;-91
2023/12/06 02:38:02;;;;;;;19.93;15.90;;;;;;;1.86;100.00;95181.69;7402008;19;20474;-91
2023/12/06 02:40:31;;;;;;;20.17;16.33;;;;;;;1.77;100.00;95161.56;7401809;19;20391;-91
2023/12/06 02:42:59;;;;;;;26.00;17.90;;;;;;;1.34;100.00;95093.38;7401561;19;20379;-91
2023/12/06 02:45:27;;;;;;;24.33;15.97;;;;;;;1.64;100.00;95151.81;7402077;19;20387;-89
2023/12/06 02:47:54;;;;;;;24.40;17.00;;;;;;;1.57;100.00;95135.09;7402315;19;20370;-89
2023/12/06 02:50:21;;;;;;;19.87;14.53;;;;;;;1.64;100.00;95146.66;7401908;19;20693;-89
2023/12/06 02:52:51;;;;;;;18.90;15.37;;;;;;;1.56;100.00;95136.88;7402545;19;20392;-92
2023/12/06 02:55:19;;;;;;;18.27;14.83;;;;;;;1.43;100.00;95111.66;7400913;19;20435;-91
2023/12/06 02:57:46;;;;;;;19.03;15.40;;;;;;;1.62;100.00;95129.88;7402068;19;20475;-91
2023/12/06 03:00:14;;;;;;;22.57;16.40;;;;;;;1.30;100.00;95084.63;7401770;19;20379;-91
2023/12/06 03:02:42;;;;;;;21.70;15.97;;;;;;;1.66;100.00;95146.38;7398693;19;20418;-91
2023/12/06 03:05:09;;;;;;;20.30;15.00;;;;;;;1.56;100.00;95128.34;7401958;19;20415;-91
2023/12/06 03:07:37;;;;;;;19.37;14.40;;;;;;;1.52;100.00;95118.56;7401208;19;20450;-91
2023/12/06 03:10:05;;;;;;;19.90;15.57;;;;;;;1.42;100.00;95095.38;7401175;19;20387;-92
2023/12/06 03:12:32;;;;;;;22.00;16.17;;;;;;;1.56;100.00;95118.78;7398499;19;20423;-91
2023/12/06 03:15:00;;;;;;;23.10;14.70;;;;;;;1.77;100.00;95168.53;7401140;19;20384;-91
2023/12/06 03:17:28;;;;;;;23.30;16.03;;;;;;;1.62;100.00;95137.63;7400750;19;20397;-91
2023/12/06 03:19:55;;;;;;;18.50;14.13;;;;;;;1.43;100.00;95107.28;7402548;19;20368;-91
2023/12/06 03:22:23;;;;;;;20.70;14.87;;;;;;;1.90;100.00;95162.75;7398466;19;20418;-91
2023/12/06 03:24:52;;;;;;;18.60;14.90;;;;;;;1.61;100.00;95115.41;7400841;19;20419;-89
2023/12/06 03:27:21;;;;;;;16.37;12.00;;;;;;;1.73;100.00;95124.34;7400979;19;20753;-89
2023/12/06 03:29:49;;;;;;;19.30;15.10;;;;;;;2.31;100.00;95221.91;7400632;19;20423;-89
2023/12/06 03:32:16;;;;;;;15.93;13.23;;;;;;;1.73;100.00;95134.69;7399109;19;20502;-89
2023/12/06 03:34:44;;;;;;;19.63;13.20;;;;;;;1.95;100.00;95175.63;7402182;19;20381;-89
2023/12/06 03:37:11;;;;;;;19.73;15.77;;;;;;;1.53;100.00;95117.53;7398309;19;20414;-89
2023/12/06 03:39:39;;;;;;;14.53;13.03;;;;;;;1.88;100.00;95169.25;7399904;19;20372;-89
2023/12/06 03:42:06;;;;;;;16.73;12.60;;;;;;;1.71;100.00;95151.53;7398710;19;20407;-89
2023/12/06 03:44:34;;;;;;;14.53;12.53;;;;;;;1.98;100.00;95193.22;7399670;19;20698;-89
2023/12/06 03:47:02;;;;;;;17.63;12.63;;;;;;;1.39;100.00;95095.91;7399779;19;20391;-89
2023/12/06 03:49:54;;;;;;;17.93;11.67;;;;;;;2.27;100.00;95219.13;7400134;19;20692;-90
2023/12/06 03:52:33;;;;;;;16.00;12.30;;;;;;;1.70;100.00;95127.50;7399228;19;20698;-89
2023/12/06 03:55:01;;;;;;;12.53;11.10;;;;;;;1.38;100.00;95078.88;7400397;19;20371;-90
2023/12/06 03:57:29;;;;;;;17.53;13.40;;;;;;;1.15;100.00;95058.88;7399711;19;20388;-90
2023/12/06 03:59:56;;;;;;;16.67;14.13;;;;;;;1.52;100.00;95113.38;7401371;19;20435;-89
2023/12/06 04:02:24;;;;;;;15.37;12.50;;;;;;;1.79;100.00;95150.94;7400991;19;20414;-85
2023/12/06 04:04:52;;;;;;;15.67;13.00;;;;;;;1.53;100.00;95111.56;7398279;19;20380;-86
2023/12/06 04:07:19;;;;;;;15.50;12.67;;;;;;;1.66;100.00;95134.22;7399157;19;20398;-92
2023/12/06 04:09:47;;;;;;;14.70;11.07;;;;;;;1.69;100.00;95156.19;7399618;19;20384;-91
2023/12/06 04:12:15;;;;;;;15.43;11.77;;;;;;;2.21;100.00;95222.78;7398690;19;20395;-92
2023/12/06 04:14:43;;;;;;;12.70;11.00;;;;;;;1.81;100.00;95167.72;7399566;19;20396;-92
2023/12/06 04:17:11;;;;;;;16.50;11.57;;;;;;;2.21;100.00;95224.59;7398602;19;20389;-92
2023/12/06 04:19:39;;;;;;;14.80;12.90;;;;;;;2.12;100.00;95219.25;7399403;19;20371;-93
2023/12/06 04:22:06;;;;;;;16.50;12.90;;;;;;;1.54;100.00;95136.38;7398363;19;20390;-91
2023/12/06 04:24:37;;;;;;;13.33;11.93;;;;;;;1.60;100.00;95145.66;7399542;19;20395;-91
2023/12/06 04:27:04;;;;;;;17.67;14.53;;;;;;;1.60;100.00;95139.72;7398995;19;20383;-92
2023/12/06 04:29:32;;;;;;;14.33;12.83;;;;;;;2.16;100.00;95222.81;7399124;19;20393;-92
2023/12/06 04:31:59;;;;;;;16.60;11.80;;;;;;;1.63;100.00;95154.69;7397889;19;20403;-92
2023/12/06 04:34:28;;;;;;;16.97;13.17;;;;;;;1.63;100.00;95158.03;7398732;19;20375;-92
2023/12/06 04:36:56;;;;;;;13.53;11.93;;;;;;;1.70;100.00;95165.50;7397899;19;20774;-94
2023/12/06 04:39:24;;;;;;;17.00;12.10;;;;;;;1.65;100.00;95165.53;7398404;19;20401;-92
2023/12/06 04:41:52;;;;;;;16.77;12.70;;;;;;;1.40;100.00;95125.13;7397203;19;20419;-91
2023/12/06 04:44:19;;;;;;;13.47;11.30;;;;;;;1.46;100.00;95118.88;7398784;19;20671;-92
2023/12/06 04:46:50;;;;;;;15.07;12.17;;;;;;;2.17;100.00;95237.31;7398618;19;20384;-92
2023/12/06 04:49:17;;;;;;;13.20;10.97;;;;;;;1.98;100.00;95210.56;7398299;19;20496;-92
2023/12/06 04:51:45;;;;;;;18.30;12.97;;;;;;;1.31;100.00;95100.91;7397943;19;20399;-93
2023/12/06 04:54:18;;;;;;;15.80;11.37;;;;;;;1.37;100.00;95107.56;7399685;19;20733;-92
2023/12/06 04:56:52;;;;;;;15.50;10.97;;;;;;;1.57;100.00;95146.22;7397944;19;20395;-92
2023/12/06 04:59:20;;;;;;;15.03;11.43;;;;;;;1.79;100.00;95169.81;7399411;19;20403;-92
2023/12/06 05:01:48;;;;;;;13.30;11.90;;;;;;;1.67;100.00;95160.84;7397259;19;20400;-94
2023/12/06 05:04:16;;;;;;;15.80;12.30;;;;;;;1.74;100.00;95167.28;7398184;19;20381;-92
2023/12/06 05:06:43;;;;;;;13.90;11.10;;;;;;;1.67;100.00;95158.28;7396112;19;20368;-94
2023/12/06 05:09:12;;;;;;;12.10;9.90;;;;;;;1.78;100.00;95170.84;7397721;19;20379;-92
2023/12/06 05:11:39;;;;;;;16.27;11.97;;;;;;;1.91;100.00;95197.91;7398426;19;20404;-92
2023/12/06 05:14:07;;;;;;;13.93;12.53;;;;;;;1.77;100.00;95171.91;7397655;19;20397;-92
2023/12/06 05:16:34;;;;;;;13.33;10.73;;;;;;;1.98;100.00;95182.88;7398946;19;20373;-92
2023/12/06 05:19:02;;;;;;;12.97;10.83;;;;;;;2.34;100.00;95244.66;7397472;19;20596;-92
2023/12/06 05:21:29;;;;;;;15.43;12.77;;;;;;;1.14;100.00;95062.50;7396816;19;20417;-92
2023/12/06 05:23:57;;;;;;;12.13;10.10;;;;;;;1.50;100.00;95132.81;7397352;19;20873;-92
2023/12/06 05:26:26;;;;;;;17.30;12.67;;;;;;;1.64;100.00;95159.59;7396092;19;20419;-92
2023/12/06 05:28:54;;;;;;;17.50;12.53;;;;;;;1.96;100.00;95195.28;7397569;19;20395;-92
2023/12/06 05:31:21;;;;;;;15.23;11.47;;;;;;;1.73;100.00;95168.31;7396695;19;20405;-92
2023/12/06 05:33:49;;;;;;;13.77;11.47;;;;;;;1.78;100.00;95146.81;7397565;19;20382;-92
2023/12/06 05:36:17;;;;;;;15.00;11.87;;;;;;;1.45;100.00;95099.25;7396335;19;20903;-92
2023/12/06 05:38:45;;;;;;;14.50;11.40;;;;;;;1.74;100.00;95154.34;7397536;19;20387;-93
2023/12/06 05:41:12;;;;;;;20.27;13.97;;;;;;;1.81;100.00;95169.53;7396457;19;20802;-92
2023/12/06 05:43:40;;;;;;;13.77;12.30;;;;;;;1.90;100.00;95175.69;7397097;19;20378;-92
2023/12/06 05:46:08;;;;;;;15.53;12.73;;;;;;;1.69;100.00;95161.34;7396643;19;20391;-92
2023/12/06 05:48:35;;;;;;;14.60;11.47;;;;;;;1.96;100.00;95210.03;7396748;19;20396;-92
2023/12/06 05:51:04;;;;;;;17.93;12.80;;;;;;;1.89;100.00;95205.19;7395767;19;20407;-94
2023/12/06 05:53:31;;;;;;;14.73;11.57;;;;;;;1.77;100.00;95192.59;7396512;19;20407;-91
2023/12/06 05:55:58;;;;;;;15.13;12.50;;;;;;;1.65;100.00;95173.28;7396233;19;20379;-92
2023/12/06 05:58:26;;;;;;;16.30;13.70;;;;;;;1.91;100.00;95204.91;7396907;19;20373;-92
2023/12/06 06:00:54;;;;;;;18.37;15.73;;;;;;;1.42;100.00;95130.78;7396260;19;20433;-92
2023/12/06 06:03:22;;;;;;;20.20;16.37;;;;;;;1.88;100.00;95198.47;7396340;19;20863;-92
2023/12/06 06:05:49;;;;;;;18.70;14.37;;;;;;;1.36;100.00;95118.94;7396198;19;20390;-92
2023/12/06 06:08:17;;;;;;;25.00;15.43;;;;;;;1.48;100.00;95135.66;7396128;19;20378;-91
2023/12/06 06:10:45;;;;;;;17.70;12.33;;;;;;;1.84;100.00;95189.72;7395940;19;20366;-90
2023/12/06 06:13:12;;;;;;;12.23;9.80;;;;;;;1.78;100.00;95178.63;7397742;19;20444;-92
2023/12/06 06:15:40;;;;;;;9.53;8.00;;;;;;;1.72;100.00;95153.84;7395851;19;20387;-92
2023/12/06 06:18:08;;;;;;;10.53;9.27;;;;;;;2.27;100.00;95250.16;7397533;19;20355;-92
2023/12/06 06:20:35;;;;;;;15.87;9.90;;;;;;;1.68;100.00;95154.63;7403049;19;20386;-91
2023/12/06 06:23:03;;;;;;;13.60;9.63;;;;;;;2.31;100.00;95252.97;7403035;19;20411;-91
2023/12/06 06:25:31;;;;;;;13.23;9.50;;;;;;;2.07;100.00;95225.22;7402072;19;20425;-92
2023/12/06 06:27:58;;;;;;;10.53;8.53;;;;;;;1.89;100.00;95191.47;7404859;19;20368;-92
2023/12/06 06:30:26;;;;;;;10.73;8.30;;;;;;;1.54;100.00;95141.56;7403305;19;20398;-92
2023/12/06 06:32:53;;;;;;;11.13;8.67;;;;;;;1.89;100.00;95189.66;7402662;19;20380;-92
2023/12/06 06:35:21;;;;;;;10.70;9.33;;;;;;;1.60;100.00;95145.66;7403088;19;20371;-92
2023/12/06 06:37:49;;;;;;;10.47;9.40;;;;;;;2.11;100.00;95230.63;7402445;19;20689;-92
2023/12/06 06:40:18;;;;;;;9.73;8.40;;;;;;;1.80;100.00;95184.28;7402507;19;20418;-92
2023/12/06 06:42:45;;;;;;;9.87;8.87;;;;;;;1.79;100.00;95187.91;7402239;19;20455;-92
2023/12/06 06:45:13;;;;;;;9.20;8.17;;;;;;;1.99;100.00;95222.44;7402392;19;20375;-92
2023/12/06 06:47:41;;;;;;;8.87;7.90;;;;;;;1.87;100.00;95227.19;7402481;19;20407;-92
2023/12/06 06:50:09;;;;;;;11.67;9.80;;;;;;;1.56;100.00;95182.66;7404235;19;20392;-92
2023/12/06 06:52:36;;;;;;;11.27;9.80;;;;;;;1.98;100.00;95224.25;7400369;19;20448;-92
2023/12/06 06:55:09;;;;;;;19.37;14.80;;;;;;;1.47;100.00;95154.03;7401904;19;20463;-95
2023/12/06 06:57:37;;;;;;;29.93;19.37;;;;;;;2.05;100.00;95229.88;7400024;19;20363;-94
2023/12/06 07:00:06;;;;;;;62.13;36.50;;;;;;;1.88;100.00;95198.47;7402320;19;20738;-95
2023/12/06 07:02:34;;;;;;;82.07;40.60;;;;;;;2.44;100.00;95267.13;7400377;19;20478;-94
2023/12/06 07:05:02;;;;;;;81.57;42.40;;;;;;;1.70;100.00;95184.38;7403443;19;20380;-94
2023/12/06 07:07:30;;;;;;;46.77;27.97;;;;;;;2.02;100.00;95230.44;7402520;19;20412;-94
2023/12/06 07:09:57;;;;;;;36.53;22.60;;;;;;;2.17;100.00;95245.06;7402408;19;20387;-94
2023/12/06 07:12:25;;;;;;;24.40;17.20;;;;;;;1.64;100.00;95185.44;7402341;19;20425;-94
2023/12/06 07:14:52;;;;;;;18.77;13.13;;;;;;;2.01;100.00;95262.53;7405335;19;20463;-93
2023/12/06 07:17:20;;;;;;;14.83;9.20;;;;;;;1.87;100.00;95247.88;7401758;19;20387;-94
2023/12/06 07:19:48;;;;;;;13.53;10.20;;;;;;;1.68;100.00;95224.47;7402837;19;20382;-95
2023/12/06 07:22:16;;;;;;;10.80;8.53;;;;;;;1.88;100.00;95255.38;7401130;19;20402;-95
2023/12/06 07:24:43;;;;;;;13.57;10.40;;;;;;;1.84;100.00;95256.97;7404584;19;20387;-94
2023/12/06 07:27:11;;;;;;;13.00;8.93;;;;;;;1.72;100.00;95241.00;7404924;19;20389;-94
2023/12/06 07:29:38;;;;;;;17.17;10.23;;;;;;;1.28;100.00;95181.53;7406762;19;20387;-95
2023/12/06 07:32:06;;;;;;;10.67;9.53;;;;;;;1.99;100.00;95282.72;7406029;19;20396;-94
2023/12/06 07:34:34;;;;;;;13.47;9.97;;;;;;;1.52;100.00;95221.97;7408578;19;20366;-96
2023/12/06 07:37:15;;;;;;;29.20;15.97;;;;;;;1.46;100.00;95224.88;7415996;19;20387;-94
2023/12/06 07:39:43;;;;;;;25.47;15.93;;;;;;;1.43;100.00;95227.97;7419489;19;20466;-90
2023/12/06 07:42:11;;;;;;;18.73;14.40;;;;;;;1.58;100.00;95237.47;7400890;19;20392;-92
2023/12/06 07:44:38;;;;;;;18.20;11.50;;;;;;;1.79;100.00;95277.66;7401468;19;20402;-91
2023/12/06 07:47:06;;;;;;;18.47;12.40;;;;;;;1.66;100.00;95242.06;7401042;19;20399;-92
2023/12/06 07:49:33;;;;;;;15.53;11.90;;;;;;;1.59;100.00;95218.31;7401386;19;20388;-92
2023/12/06 07:52:01;;;;;;;15.33;11.33;;;;;;;1.76;100.00;95260.88;7398870;19;20400;-92
2023/12/06 07:54:28;;;;;;;19.00;10.93;;;;;;;1.95;100.00;95297.22;7400139;19;20702;-90
2023/12/06 07:56:56;;;;;;;15.90;10.50;;;;;;;0.91;100.00;95131.88;7399431;19;20404;-91
2023/12/06 07:59:23;;;;;;;14.70;10.37;;;;;;;1.98;100.00;95291.53;7399797;19;20386;-92
2023/12/06 08:01:52;;;;;;;11.00;8.27;;;;;;;1.79;100.00;95269.91;7398608;19;20434;-90
2023/12/06 08:04:19;;;;;;;10.80;8.07;;;;;;;1.55;100.00;95220.66;7401749;19;20404;-90
2023/12/06 08:06:47;;;;;;;11.83;8.97;;;;;;;1.80;100.00;95259.28;7399627;19;20469;-90
2023/12/06 08:09:17;;;;;;;8.20;6.97;;;;;;;2.07;100.00;95297.66;7399889;19;20387;-92
2023/12/06 08:11:46;;;;;;;9.53;7.80;;;;;;;1.67;100.00;95230.66;7399166;19;20733;-92
2023/12/06 08:14:14;;;;;;;8.83;7.67;;;;;;;2.06;100.00;95285.00;7400186;19;20400;-92
2023/12/06 08:16:41;;;;;;;17.40;12.00;;;;;;;2.23;100.00;95297.56;7400037;19;20980;-93
2023/12/06 08:19:09;;;;;;;18.90;14.17;;;;;;;2.08;100.00;95260.41;7400082;19;20372;-92
2023/12/06 08:21:36;;;;;;;13.83;8.90;;;;;;;2.19;100.00;95281.03;7400303;19;20410;-92
2023/12/06 08:24:06;;;;;;;9.30;7.80;;;;;;;2.27;100.00;95281.22;7399644;19;20395;-93
2023/12/06 08:26:34;;;;;;;11.43;8.00;;;;;;;2.13;100.00;95262.19;7399194;19;20406;-93
2023/12/06 08:29:01;;;;;;;10.30;8.40;;;;;;;2.26;100.00;95266.75;7403067;19;20377;-92
2023/12/06 08:31:29;;;;;;;10.80;8.17;;;;;;;2.28;100.00;95276.81;7399933;19;20417;-93
2023/12/06 08:33:57;;;;;;;10.10;7.93;;;;;;;2.46;100.00;95302.03;7401006;19;20694;-92
2023/12/06 08:36:25;;;;;;;9.90;7.33;;;;;;;2.84;100.00;95347.06;7401013;19;20401;-92
2023/12/06 08:38:53;;;;;;;10.93;8.80;;;;;;;2.59;100.00;95309.19;7400521;19;20391;-92
2023/12/06 08:41:22;;;;;;;11.33;8.30;;;;;;;2.45;100.00;95281.59;7398677;19;20402;-92
2023/12/06 08:43:49;;;;;;;9.03;7.47;;;;;;;2.32;100.00;95273.41;7399570;19;20392;-92
2023/12/06 08:46:18;;;;;;;21.23;12.90;;;;;;;2.41;100.00;95261.44;7399453;19;20407;-92
2023/12/06 08:48:46;;;;;;;13.23;9.63;;;;;;;3.03;100.00;95338.59;7401085;19;20808;-93
2023/12/06 08:51:13;;;;;;;10.90;8.50;;;;;;;2.76;100.00;95305.41;7399598;19;20610;-92
2023/12/06 08:53:41;;;;;;;6.67;5.80;;;;;;;3.07;100.00;95340.38;7399976;19;20372;-92
2023/12/06 08:56:08;;;;;;;7.80;7.10;;;;;;;2.32;100.00;95220.88;7398966;19;20356;-93
2023/12/06 08:58:36;;;;;;;7.80;7.10;;;;;;;2.82;100.00;95312.09;7397971;19;20462;-93
2023/12/06 09:01:03;;;;;;;8.90;8.00;;;;;;;2.44;100.00;95236.06;7399019;19;20416;-92
2023/12/06 09:03:31;;;;;;;10.60;7.80;;;;;;;2.92;100.00;95293.88;7400540;19;20696;-93
2023/12/06 09:05:58;;;;;;;9.37;7.30;;;;;;;2.98;100.00;95313.50;7398549;19;20860;-93
2023/12/06 09:08:29;;;;;;;8.40;6.77;;;;;;;2.85;100.00;95291.59;7399167;19;20371;-93
2023/12/06 09:10:56;;;;;;;7.40;6.03;;;;;;;2.96;100.00;95311.19;7398532;19;20406;-93
2023/12/06 09:13:24;;;;;;;8.60;7.70;;;;;;;2.83;100.00;95282.56;7399479;19;20393;-93
2023/12/06 09:15:51;;;;;;;8.00;6.47;;;;;;;2.97;100.00;95320.50;7399354;19;20390;-93
2023/12/06 09:18:19;;;;;;;6.13;5.50;;;;;;;3.49;100.00;95411.53;7398844;19;20391;-93
2023/12/06 09:20:46;;;;;;;7.43;6.67;;;;;;;2.85;100.00;95319.31;7399757;19;20411;-93
2023/12/06 09:23:14;;;;;;;8.77;6.47;;;;;;;2.86;100.00;95323.47;7399626;19;20371;-92
2023/12/06 09:25:41;;;;;;;6.53;5.93;;;;;;;3.05;100.00;95354.66;7397242;19;20405;-91
2023/12/06 09:28:09;;;;;;;6.20;4.83;;;;;;;2.76;100.00;95300.22;7397959;19;20387;-92
2023/12/06 09:30:37;;;;;;;10.00;8.10;;;;;;;2.48;100.00;95262.94;7397182;19;20401;-92
2023/12/06 09:33:04;;;;;;;16.43;12.00;;;;;;;2.81;100.00;95319.09;7397865;19;20449;-93
2023/12/06 09:35:32;;;;;;;11.83;9.13;;;;;;;2.47;100.00;95272.50;7396986;19;20375;-92
2023/12/06 09:38:00;;;;;;;7.43;6.00;;;;;;;2.97;100.00;95343.06;7396544;19;20458;-92
2023/12/06 09:40:28;;;;;;;12.30;8.50;;;;;;;3.04;100.00;95358.31;7397186;19;20387;-92
2023/12/06 09:43:00;;;;;;;12.70;8.30;;;;;;;3.59;100.00;95430.34;7397542;19;20388;-91
2023/12/06 09:45:29;;;;;;;12.67;9.87;;;;;;;2.55;100.00;95290.06;7397306;19;20371;-91
2023/12/06 09:47:56;;;;;;;11.00;7.60;;;;;;;2.86;100.00;95328.66;7397330;19;20399;-91
2023/12/06 09:50:27;;;;;;;5.83;5.13;;;;;;;3.58;100.00;95426.22;7396849;19;20400;-91
2023/12/06 09:52:55;;;;;;;5.73;5.10;;;;;;;2.81;100.00;95282.06;7399550;19;20388;-91
2023/12/06 09:55:24;;;;;;;5.23;4.77;;;;;;;3.20;100.00;95334.53;7405366;19;20386;-91
2023/12/06 09:57:52;;;;;;;4.03;3.43;;;;;;;3.76;100.00;95422.13;7403484;19;20670;-90
2023/12/06 10:00:21;;;;;;;6.03;5.43;;;;;;;3.47;100.00;95370.31;7406283;19;20357;-90
2023/12/06 10:02:58;;;;;;;5.47;4.87;;;;;;;3.43;100.00;95364.13;7404042;19;20901;-91
2023/12/06 10:05:27;;;;;;;9.07;7.13;;;;;;;3.05;100.00;95316.56;7404504;19;20781;-91
2023/12/06 10:07:56;;;;;;;5.20;4.70;;;;;;;3.06;100.00;95315.50;7404013;19;20386;-91
2023/12/06 10:10:24;;;;;;;6.03;4.50;;;;;;;3.53;100.00;95373.59;7404314;19;20397;-92
2023/12/06 10:12:55;;;;;;;6.53;5.90;;;;;;;2.80;100.00;95290.88;7404037;19;20390;-91
2023/12/06 10:15:23;;;;;;;5.40;4.00;;;;;;;3.25;100.00;95328.53;7404684;19;20398;-93
2023/12/06 10:17:51;;;;;;;5.60;4.23;;;;;;;3.03;100.00;95321.22;7405092;19;20382;-93
2023/12/06 10:20:22;;;;;;;5.83;4.17;;;;;;;3.40;100.00;95356.09;7405700;19;20380;-93
2023/12/06 10:22:51;;;;;;;4.60;3.80;;;;;;;3.00;100.00;95308.81;7419229;19;20371;-93
2023/12/06 10:25:19;;;;;;;7.90;4.70;;;;;;;2.94;100.00;95328.84;7403133;19;20409;-92
2023/12/06 10:27:46;;;;;;;5.00;4.43;;;;;;;2.73;100.00;95291.19;7403589;19;20394;-93
2023/12/06 10:30:22;;;;;;;5.20;4.70;;;;;;;3.56;100.00;95430.88;7407363;19;20454;-92
2023/12/06 10:32:51;;;;;;;5.73;5.13;;;;;;;2.91;100.00;95326.03;7404625;19;20378;-93
2023/12/06 10:35:19;;;;;;;7.50;5.43;;;;;;;2.81;100.00;95311.34;7404854;19;20389;-92
2023/12/06 10:37:49;;;;;;;5.27;4.77;;;;;;;2.72;100.00;95300.78;7405124;19;20366;-94
2023/12/06 10:40:23;;;;;;;7.13;5.47;;;;;;;2.91;100.00;95315.66;7407587;19;20410;-93
2023/12/06 10:42:57;;;;;;;19.23;13.53;;;;;;;3.21;100.00;95363.81;7405482;19;20388;-93
2023/12/06 10:45:24;;;;;;;13.57;10.10;;;;;;;2.95;100.00;95320.00;7406301;19;20391;-93
2023/12/06 10:47:55;;;;;;;14.13;8.90;;;;;;;3.64;100.00;95410.59;7403450;19;20394;-93
2023/12/06 10:50:23;;;;;;;13.43;8.50;;;;;;;3.37;100.00;95383.38;7403677;19;20373;-93
2023/12/06 10:52:54;;;;;;;14.27;11.67;;;;;;;3.55;100.00;95423.38;7403093;19;20732;-93
2023/12/06 10:55:23;;;;;;;9.87;8.27;;;;;;;3.20;100.00;95375.25;7402323;19;20379;-93
2023/12/06 10:57:53;;;;;;;7.03;6.40;;;;;;;3.03;100.00;95343.78;7402655;19;20387;-93
2023/12/06 11:00:22;;;;;;;6.87;5.60;;;;;;;3.28;100.00;95370.22;7403424;19;20438;-93
2023/12/06 11:02:49;;;;;;;5.20;4.30;;;;;;;3.40;100.00;95379.44;7404064;19;20391;-93
2023/12/06 11:05:19;;;;;;;5.30;4.80;;;;;;;3.48;100.00;95347.72;7401040;19;20383;-93
2023/12/06 11:08:04;;;;;;;6.10;5.33;;;;;;;4.06;100.00;95418.41;7404797;19;20369;-93
2023/12/06 11:10:48;;;;;;;4.77;4.40;;;;;;;4.12;100.00;95419.91;7409068;19;20860;-92
2023/12/06 11:13:41;;;;;;;5.67;4.90;;;;;;;4.02;100.00;95381.06;7406414;19;20396;-93
2023/12/06 11:16:36;;;;;;;6.90;4.80;;;;;;;4.47;100.00;95423.06;7404583;19;20363;-93
2023/12/06 11:19:04;;;;;;;4.90;4.40;;;;;;;3.95;100.00;95325.34;7400894;19;20676;-94
2023/12/06 11:21:32;;;;;;;8.77;7.97;;;;;;;3.82;100.00;95306.81;7401072;19;20416;-93
2023/12/06 11:24:00;;;;;;;6.77;6.17;;;;;;;3.82;100.00;95306.06;7402231;19;20405;-93
2023/12/06 11:26:27;;;;;;;4.23;3.93;;;;;;;4.08;100.00;95335.03;7399808;19;20433;-94
2023/12/06 11:28:56;;;;;;;5.97;5.47;;;;;;;4.17;100.00;95330.78;7401367;19;20458;-93